createdAt,value
2022-12-11T00:01:10.549Z,98417.25
2022-12-11T00:04:25.583Z,98375.16
2022-12-11T00:07:34.248Z,98406.00
2022-12-11T00:10:42.614Z,98398.00
2022-12-11T00:14:04.662Z,98381.03
2022-12-11T00:17:12.688Z,98379.47
2022-12-11T00:20:21.912Z,98388.31
2022-12-11T00:23:30.596Z,98391.16
2022-12-11T00:26:39.490Z,98387.50
2022-12-11T00:29:54.643Z,98380.53
2022-12-11T00:32:56.459Z,98383.66
2022-12-11T00:36:19.786Z,98394.84
2022-12-11T00:39:21.646Z,98392.47
2022-12-11T00:42:36.737Z,98383.66
2022-12-11T00:45:47.690Z,98376.00
2022-12-11T00:48:56.272Z,98381.53
2022-12-11T00:52:04.962Z,98378.41
2022-12-11T00:55:13.262Z,98373.38
2022-12-11T00:58:21.614Z,98385.87
2022-12-11T01:01:30.389Z,98376.22
2022-12-11T01:04:41.598Z,98391.38
2022-12-11T01:07:50.216Z,98387.41
2022-12-11T01:10:58.627Z,98374.25
2022-12-11T01:14:13.985Z,98377.94
2022-12-11T01:17:22.630Z,98386.06
2022-12-11T01:20:31.623Z,98397.38
2022-12-11T01:23:39.659Z,98393.22
2022-12-11T01:26:48.282Z,98387.56
2022-12-11T01:29:56.801Z,98383.44
2022-12-11T01:33:05.525Z,98394.56
2022-12-11T01:36:24.585Z,98389.59
2022-12-11T01:39:32.906Z,98402.72
2022-12-11T01:42:41.283Z,98399.72
2022-12-11T01:45:53.715Z,98395.41
2022-12-11T01:49:06.285Z,98400.87
2022-12-11T01:52:20.619Z,98391.09
2022-12-11T01:55:29.590Z,98395.25
2022-12-11T01:58:40.646Z,98406.88
2022-12-11T02:02:03.365Z,98415.84
2022-12-11T02:05:13.743Z,98414.69
2022-12-11T02:08:28.673Z,98412.53
2022-12-11T02:11:53.678Z,98413.03
2022-12-11T02:15:37.711Z,98410.19
2022-12-11T02:19:07.817Z,98398.03
2022-12-11T02:22:23.702Z,98416.16
2022-12-11T02:25:48.773Z,98429.44
2022-12-11T02:29:07.692Z,98422.78
2022-12-11T02:32:30.750Z,98412.31
2022-12-11T02:35:42.334Z,98422.47
2022-12-11T02:38:56.787Z,98421.78
2022-12-11T02:42:13.676Z,98416.31
2022-12-11T02:45:17.823Z,98403.84
2022-12-11T02:48:33.698Z,98374.72
2022-12-11T02:51:44.150Z,98401.37
2022-12-11T02:54:54.822Z,98412.00
2022-12-11T02:58:12.896Z,98396.88
2022-12-11T03:01:21.766Z,98408.81
2022-12-11T03:04:30.649Z,98412.75
2022-12-11T03:07:42.939Z,98404.97
2022-12-11T03:10:51.511Z,98400.00
2022-12-11T03:14:07.658Z,98389.06
2022-12-11T03:17:22.834Z,98389.50
2022-12-11T03:20:51.741Z,98386.72
2022-12-11T03:24:09.751Z,98387.03
2022-12-11T03:27:33.355Z,98389.34
2022-12-11T03:30:49.875Z,98389.69
2022-12-11T03:34:00.885Z,98394.66
2022-12-11T03:37:11.534Z,98386.16
2022-12-11T03:40:23.757Z,98386.00
2022-12-11T03:43:34.001Z,98385.81
2022-12-11T03:46:50.702Z,98373.47
2022-12-11T03:49:54.110Z,98389.78
2022-12-11T03:53:10.771Z,98392.09
2022-12-11T03:56:20.766Z,98388.75
2022-12-11T03:59:39.723Z,98387.06
2022-12-11T04:02:42.585Z,98386.09
2022-12-11T04:05:59.729Z,98396.56
2022-12-11T04:09:08.699Z,98386.91
2022-12-11T04:12:24.703Z,98391.91
2022-12-11T04:15:33.897Z,98401.94
2022-12-11T04:18:48.714Z,98402.06
2022-12-11T04:21:56.745Z,98400.19
2022-12-11T04:25:13.991Z,98402.94
2022-12-11T04:28:22.315Z,98408.31
2022-12-11T04:31:30.709Z,98418.22
2022-12-11T04:34:39.390Z,98414.56
2022-12-11T04:37:53.698Z,98421.81
2022-12-11T04:41:06.416Z,98418.78
2022-12-11T04:44:20.722Z,98419.00
2022-12-11T04:47:28.743Z,98432.72
2022-12-11T04:50:43.929Z,98443.41
2022-12-11T04:53:52.949Z,98444.78
2022-12-11T04:57:01.727Z,98459.50
2022-12-11T05:00:11.965Z,98466.63
2022-12-11T05:03:26.750Z,98460.38
2022-12-11T05:06:28.702Z,98469.72
2022-12-11T05:09:43.843Z,98473.16
2022-12-11T05:12:51.784Z,98484.78
2022-12-11T05:16:15.811Z,98492.69
2022-12-11T05:19:24.759Z,98493.09
2022-12-11T05:22:42.765Z,98483.78
2022-12-11T05:25:52.117Z,98488.97
2022-12-11T05:29:07.710Z,98486.59
2022-12-11T05:32:15.818Z,98495.00
2022-12-11T05:35:24.371Z,98488.56
2022-12-11T05:38:39.905Z,98480.59
2022-12-11T05:41:48.734Z,98489.31
2022-12-11T05:45:03.774Z,98491.47
2022-12-11T05:48:06.118Z,98480.84
2022-12-11T05:51:22.746Z,98493.84
2022-12-11T05:54:24.511Z,98484.87
2022-12-11T05:57:38.725Z,98485.16
2022-12-11T06:00:48.795Z,98486.88
2022-12-11T06:04:04.757Z,98488.16
2022-12-11T06:07:14.240Z,98497.34
2022-12-11T06:10:22.909Z,98507.97
2022-12-11T06:13:37.765Z,98525.31
2022-12-11T06:16:39.821Z,98525.50
2022-12-11T06:19:55.798Z,98521.19
2022-12-11T06:23:04.741Z,98544.00
2022-12-11T06:26:14.457Z,98540.66
2022-12-11T06:29:22.782Z,98554.28
2022-12-11T06:32:31.353Z,98546.41
2022-12-11T06:35:42.323Z,98562.88
2022-12-11T06:38:58.830Z,98580.31
2022-12-11T06:42:06.855Z,98585.41
2022-12-11T06:45:21.780Z,98582.47
2022-12-11T06:48:30.882Z,98587.75
2022-12-11T06:51:39.669Z,98590.53
2022-12-11T06:54:47.811Z,98575.56
2022-12-11T06:58:02.782Z,98595.56
2022-12-11T07:01:25.804Z,98612.69
2022-12-11T07:04:27.934Z,98607.56
2022-12-11T07:07:42.804Z,98608.78
2022-12-11T07:10:50.852Z,98609.22
2022-12-11T07:14:12.878Z,98615.59
2022-12-11T07:17:21.561Z,98613.41
2022-12-11T07:20:32.065Z,98627.13
2022-12-11T07:23:47.775Z,98627.50
2022-12-11T07:26:55.882Z,98623.88
2022-12-11T07:30:11.825Z,98639.66
2022-12-11T07:33:20.807Z,98639.34
2022-12-11T07:36:30.746Z,98637.91
2022-12-11T07:39:39.839Z,98637.28
2022-12-11T07:42:48.506Z,98643.50
2022-12-11T07:45:56.865Z,98656.66
2022-12-11T07:49:06.729Z,98648.69
2022-12-11T07:52:15.810Z,98659.00
2022-12-11T07:55:24.374Z,98655.59
2022-12-11T07:58:38.877Z,98664.06
2022-12-11T08:01:47.083Z,98683.81
2022-12-11T08:05:01.793Z,98692.22
2022-12-11T08:08:10.485Z,98685.00
2022-12-11T08:11:20.830Z,98702.31
2022-12-11T08:14:42.837Z,98705.66
2022-12-11T08:17:51.473Z,98718.03
2022-12-11T08:21:06.810Z,98722.44
2022-12-11T08:24:21.892Z,98732.38
2022-12-11T08:27:23.742Z,98747.16
2022-12-11T08:30:39.908Z,98738.38
2022-12-11T08:33:56.864Z,98748.31
2022-12-11T08:37:04.777Z,98755.38
2022-12-11T08:40:20.830Z,98752.25
2022-12-11T08:43:29.420Z,98762.44
2022-12-11T08:46:43.895Z,98776.94
2022-12-11T08:49:45.814Z,98785.53
2022-12-11T08:53:00.807Z,98792.28
2022-12-11T08:56:05.976Z,98787.72
2022-12-11T08:59:20.867Z,98799.19
2022-12-11T09:02:22.636Z,98803.81
2022-12-11T09:05:37.878Z,98802.16
2022-12-11T09:08:40.902Z,98800.47
2022-12-11T09:11:56.806Z,98804.25
2022-12-11T09:15:18.826Z,98801.75
2022-12-11T09:18:27.467Z,98799.78
2022-12-11T09:21:36.960Z,98794.94
2022-12-11T09:24:51.867Z,98793.44
2022-12-11T09:27:59.834Z,98801.47
2022-12-11T09:31:19.651Z,98801.31
2022-12-11T09:34:29.576Z,98811.03
2022-12-11T09:37:44.834Z,98807.00
2022-12-11T09:40:54.078Z,98812.94
2022-12-11T09:44:22.904Z,98816.56
2022-12-11T09:47:46.906Z,98813.47
2022-12-11T09:50:51.588Z,98801.16
2022-12-11T09:54:10.222Z,98811.81
2022-12-11T09:57:38.888Z,98807.84
2022-12-11T10:01:05.040Z,98803.50
2022-12-11T10:04:49.887Z,98799.19
2022-12-11T10:08:26.898Z,98773.66
2022-12-11T10:12:04.879Z,98770.41
2022-12-11T10:15:40.964Z,98774.16
2022-12-11T10:18:42.861Z,98771.63
2022-12-11T10:21:59.887Z,98791.59
2022-12-11T10:25:13.084Z,98794.19
2022-12-11T10:28:21.950Z,98791.53
2022-12-11T10:31:47.862Z,98807.72
2022-12-11T10:35:08.993Z,98819.78
2022-12-11T10:38:17.016Z,98809.81
2022-12-11T10:41:47.963Z,98808.00
2022-12-11T10:45:00.252Z,98826.09
2022-12-11T10:48:17.885Z,98826.84
2022-12-11T10:51:36.577Z,98828.06
2022-12-11T10:54:52.930Z,98827.56
2022-12-11T10:57:59.990Z,98833.94
2022-12-11T11:01:21.929Z,98840.19
2022-12-11T11:04:31.581Z,98849.03
2022-12-11T11:07:45.970Z,98846.50
2022-12-11T11:10:59.510Z,98836.53
2022-12-11T11:14:30.926Z,98834.13
2022-12-11T11:17:54.565Z,98830.78
2022-12-11T11:21:04.088Z,98829.34
2022-12-11T11:24:12.910Z,98816.03
2022-12-11T11:27:35.315Z,98809.91
2022-12-11T11:31:10.995Z,98812.41
2022-12-11T11:34:27.935Z,98813.22
2022-12-11T11:37:38.851Z,98820.13
2022-12-11T11:41:18.696Z,98831.09
2022-12-11T11:44:43.900Z,98839.47
2022-12-11T11:48:15.971Z,98845.62
2022-12-11T11:51:37.662Z,98855.06
2022-12-11T11:54:55.893Z,98853.34
2022-12-11T11:58:16.843Z,98856.59
2022-12-11T12:01:26.902Z,98871.56
2022-12-11T12:04:35.507Z,98861.91
2022-12-11T12:08:07.945Z,98881.22
2022-12-11T12:11:36.463Z,98886.63
2022-12-11T12:15:07.931Z,98890.44
2022-12-11T12:18:46.087Z,98888.28
2022-12-11T12:21:52.702Z,98891.34
2022-12-11T12:25:30.974Z,98886.09
2022-12-11T12:29:16.168Z,98886.47
2022-12-11T12:32:43.567Z,98890.59
2022-12-11T12:36:07.445Z,98885.72
2022-12-11T12:39:38.948Z,98885.63
2022-12-11T12:43:04.440Z,98889.53
2022-12-11T12:46:38.927Z,98892.03
2022-12-11T12:49:58.225Z,98896.03
2022-12-11T12:53:06.906Z,98910.31
2022-12-11T12:56:16.486Z,98905.31
2022-12-11T12:59:28.114Z,98915.50
2022-12-11T13:02:53.951Z,98927.91
2022-12-11T13:06:08.203Z,98938.91
2022-12-11T13:09:26.010Z,98949.69
2022-12-11T13:12:49.946Z,98961.84
2022-12-11T13:16:30.971Z,98959.94
2022-12-11T13:19:46.127Z,98965.31
2022-12-11T13:23:14.990Z,98965.72
2022-12-11T13:26:39.981Z,98981.97
2022-12-11T13:29:55.026Z,98970.59
2022-12-11T13:33:20.942Z,98968.62
2022-12-11T13:36:31.539Z,98969.09
2022-12-11T13:39:46.986Z,98972.66
2022-12-11T13:43:01.615Z,98974.94
2022-12-11T13:46:13.999Z,98982.66
2022-12-11T13:49:41.049Z,98982.81
2022-12-11T13:52:54.733Z,98981.41
2022-12-11T13:56:10.014Z,98990.28
2022-12-11T13:59:23.746Z,98983.66
2022-12-11T14:02:44.079Z,98994.56
2022-12-11T14:05:45.923Z,99009.69
2022-12-11T14:09:05.247Z,98997.88
2022-12-11T14:12:20.762Z,99019.84
2022-12-11T14:15:43.990Z,99022.22
2022-12-11T14:18:52.970Z,99030.75
2022-12-11T14:22:12.046Z,99029.50
2022-12-11T14:25:23.309Z,99040.13
2022-12-11T14:28:49.011Z,99039.28
2022-12-11T14:31:51.323Z,99037.75
2022-12-11T14:35:11.041Z,99057.16
2022-12-11T14:38:20.077Z,99072.13
2022-12-11T14:41:57.070Z,99073.09
2022-12-11T14:45:16.833Z,99077.72
2022-12-11T14:48:37.139Z,99068.66
2022-12-11T14:51:48.046Z,99080.25
2022-12-11T14:55:03.143Z,99080.78
2022-12-11T14:58:30.026Z,99072.38
2022-12-11T15:01:41.004Z,99083.41
2022-12-11T15:05:01.970Z,99090.56
2022-12-11T15:08:33.009Z,99087.25
2022-12-11T15:11:48.073Z,99095.66
2022-12-11T15:15:06.026Z,99089.50
2022-12-11T15:18:33.993Z,99094.25
2022-12-11T15:21:36.811Z,99105.00
2022-12-11T15:24:53.042Z,99115.34
2022-12-11T15:27:58.407Z,99100.53
2022-12-11T15:31:32.008Z,99110.03
2022-12-11T15:34:44.946Z,99108.38
2022-12-11T15:38:01.109Z,99110.47
2022-12-11T15:41:26.048Z,99126.69
2022-12-11T15:44:28.173Z,99116.91
2022-12-11T15:47:43.027Z,99115.78
2022-12-11T15:50:52.062Z,99119.41
2022-12-11T15:54:00.806Z,99121.62
2022-12-11T15:57:13.068Z,99124.19
2022-12-11T16:00:32.100Z,99121.25
2022-12-11T16:03:41.349Z,99131.44
2022-12-11T16:06:50.637Z,99129.22
2022-12-11T16:09:59.147Z,99134.53
2022-12-11T16:13:07.883Z,99134.53
2022-12-11T16:16:31.046Z,99141.34
2022-12-11T16:19:33.301Z,99136.88
2022-12-11T16:22:48.106Z,99136.47
2022-12-11T16:25:57.066Z,99146.81
2022-12-11T16:29:12.170Z,99147.50
2022-12-11T16:32:21.250Z,99143.03
2022-12-11T16:35:29.915Z,99153.50
2022-12-11T16:38:38.195Z,99150.84
2022-12-11T16:41:53.025Z,99153.66
2022-12-11T16:45:01.094Z,99164.72
2022-12-11T16:48:09.906Z,99166.69
2022-12-11T16:51:25.035Z,99151.56
2022-12-11T16:54:26.935Z,99164.97
2022-12-11T16:57:42.111Z,99159.62
2022-12-11T17:00:52.140Z,99160.91
2022-12-11T17:04:01.180Z,99159.47
2022-12-11T17:07:11.478Z,99156.84
2022-12-11T17:10:26.110Z,99165.81
2022-12-11T17:13:36.218Z,99167.00
2022-12-11T17:16:51.390Z,99139.75
2022-12-11T17:20:00.115Z,99164.78
2022-12-11T17:23:17.098Z,99153.16
2022-12-11T17:26:32.110Z,99172.94
2022-12-11T17:29:34.002Z,99162.97
2022-12-11T17:32:49.119Z,99176.22
2022-12-11T17:35:51.006Z,99173.56
2022-12-11T17:39:06.084Z,99169.38
2022-12-11T17:42:08.091Z,99162.28
2022-12-11T17:45:23.086Z,99172.44
2022-12-11T17:48:24.943Z,99170.25
2022-12-11T17:51:41.090Z,99170.84
2022-12-11T17:54:42.867Z,99169.72
2022-12-11T17:57:58.109Z,99169.22
2022-12-11T18:01:07.162Z,99160.19
2022-12-11T18:04:22.101Z,99176.94
2022-12-11T18:07:23.931Z,99176.66
2022-12-11T18:10:43.183Z,99179.91
2022-12-11T18:13:45.682Z,99183.41
2022-12-11T18:17:00.082Z,99186.03
2022-12-11T18:20:12.463Z,99189.41
2022-12-11T18:23:27.258Z,99185.22
2022-12-11T18:26:29.158Z,99198.19
2022-12-11T18:29:44.150Z,99199.84
2022-12-11T18:32:52.776Z,99200.00
2022-12-11T18:36:01.090Z,99208.44
2022-12-11T18:39:16.106Z,99207.50
2022-12-11T18:42:32.850Z,99203.16
2022-12-11T18:45:49.082Z,99200.28
2022-12-11T18:48:50.859Z,99218.88
2022-12-11T18:52:05.151Z,99223.16
2022-12-11T18:55:20.134Z,99216.56
2022-12-11T18:58:35.131Z,99197.00
2022-12-11T19:01:43.784Z,99205.00
2022-12-11T19:04:53.145Z,99220.44
2022-12-11T19:08:02.891Z,99233.03
2022-12-11T19:11:12.162Z,99226.69
2022-12-11T19:14:27.414Z,99235.25
2022-12-11T19:17:43.122Z,99235.91
2022-12-11T19:21:04.993Z,99240.66
2022-12-11T19:24:20.678Z,99234.28
2022-12-11T19:27:35.102Z,99244.22
2022-12-11T19:30:51.150Z,99248.66
2022-12-11T19:34:00.683Z,99248.34
2022-12-11T19:37:09.082Z,99245.44
2022-12-11T19:40:21.193Z,99229.09
2022-12-11T19:43:36.230Z,99243.88
2022-12-11T19:46:38.620Z,99244.84
2022-12-11T19:49:53.235Z,99246.56
2022-12-11T19:53:01.867Z,99252.88
2022-12-11T19:56:17.127Z,99252.72
2022-12-11T19:59:18.993Z,99260.16
2022-12-11T20:02:34.130Z,99270.25
2022-12-11T20:05:42.782Z,99260.72
2022-12-11T20:08:51.197Z,99259.50
2022-12-11T20:11:59.969Z,99255.19
2022-12-11T20:15:08.110Z,99260.63
2022-12-11T20:18:18.705Z,99269.78
2022-12-11T20:21:34.142Z,99271.66
2022-12-11T20:24:36.563Z,99279.31
2022-12-11T20:27:51.180Z,99277.13
2022-12-11T20:31:20.152Z,99269.84
2022-12-11T20:34:22.177Z,99277.47
2022-12-11T20:37:37.203Z,99273.53
2022-12-11T20:40:46.041Z,99281.88
2022-12-11T20:44:01.142Z,99274.25
2022-12-11T20:47:09.689Z,99283.41
2022-12-11T20:50:18.249Z,99286.28
2022-12-11T20:53:33.155Z,99280.91
2022-12-11T20:56:48.167Z,99274.78
2022-12-11T20:59:56.826Z,99282.84
2022-12-11T21:03:05.186Z,99277.63
2022-12-11T21:06:21.010Z,99291.72
2022-12-11T21:09:36.155Z,99290.75
2022-12-11T21:12:51.177Z,99288.59
2022-12-11T21:16:05.364Z,99300.09
2022-12-11T21:19:21.290Z,99309.13
2022-12-11T21:22:30.300Z,99306.47
2022-12-11T21:25:39.011Z,99314.59
2022-12-11T21:28:47.226Z,99332.16
2022-12-11T21:32:03.202Z,99328.19
2022-12-11T21:35:05.632Z,99331.88
2022-12-11T21:38:20.213Z,99336.78
2022-12-11T21:41:36.195Z,99340.66
2022-12-11T21:48:13.752Z,99346.22
2022-12-11T21:51:36.472Z,99346.75
2022-12-11T21:54:52.178Z,99344.78
2022-12-11T21:58:00.794Z,99349.62
2022-12-11T22:01:11.231Z,99359.25
2022-12-11T22:04:20.150Z,99355.69
2022-12-11T22:07:28.199Z,99353.78
2022-12-11T22:10:37.660Z,99354.94
2022-12-11T22:13:53.167Z,99363.66
2022-12-11T22:16:55.044Z,99354.56
2022-12-11T22:20:12.218Z,99362.06
2022-12-11T22:23:21.270Z,99362.41
2022-12-11T22:26:37.322Z,99369.53
2022-12-11T22:29:45.894Z,99357.88
2022-12-11T22:32:54.278Z,99350.53
2022-12-11T22:36:03.158Z,99361.47
2022-12-11T22:39:11.232Z,99353.56
2022-12-11T22:42:27.302Z,99350.31
2022-12-11T22:45:29.217Z,99355.13
2022-12-11T22:48:44.222Z,99363.19
2022-12-11T22:51:46.103Z,99364.75
2022-12-11T22:55:01.202Z,99359.47
2022-12-11T22:58:03.133Z,99367.28
2022-12-11T23:01:23.193Z,99374.63
2022-12-11T23:04:25.494Z,99378.13
2022-12-11T23:07:40.296Z,99380.53
2022-12-11T23:10:55.245Z,99382.94
2022-12-11T23:14:22.226Z,99390.66
2022-12-11T23:17:30.816Z,99382.59
2022-12-11T23:20:42.229Z,99379.69
2022-12-11T23:23:57.187Z,99371.41
2022-12-11T23:27:06.013Z,99374.78
2022-12-11T23:30:21.266Z,99379.34
2022-12-11T23:33:30.158Z,99371.88
2022-12-11T23:36:45.262Z,99359.47
2022-12-11T23:39:53.287Z,99375.47
2022-12-11T23:43:08.246Z,99373.81
2022-12-11T23:46:21.461Z,99375.00
2022-12-11T23:49:30.254Z,99361.78
2022-12-11T23:52:38.863Z,99362.84
2022-12-11T23:55:50.297Z,99363.81
2022-12-11T23:58:58.938Z,99365.50
